Greer, South Carolina
Current Conditions -  °F | °C
As of 10:53 AM on Monday 22 Dec 2014 (Local Time) from KGSP Reporting Station
Haze Haze  
Wind Chill: 34°   Ceiling: 400
Heat Index: 41°   Visibility: 2mi
Dew Point: 40°   Wind: 13mph
Humidity: 96%   Direction: 40°NE
Pressure: 30.09"   Gusts: NA
Location:  34.94°N, 82.23°W
Report Text: KGSP 221553Z 04011KT 2SM BR OVC004 05/04 A3009 RMK AO2 SLP190 T00500044
Loading
Personal Weather Stations






























Interactive Weather Map New forecast layout! Learn more

10-Day Weather Forecast

Advertisements
Track Severe Weather on mobile